Westrac — WTH4325 — position and weather

sailwx.info

Track history (hours):
 
Tides and Currents Weather Stations Pressure Air Temp Water Temp Dewpoint Dewpoint Depression Visibility Wind Speed Wind Dir Waves Ship Positions

Westrac

Owner: WESTERN TOWBOAT CO, SEATTLE, WA. More information available from US FCC via Universal Licensing System and Coast Guard Vessel Documentation Center.

Last reported at 2015-Feb-28 19:51 UTC. Time now 2015-Mar-01 08:33 UTC.
Position N 47°35' W 122°22'.

Length 23 m; draft 5 m.

Type: Tug. MMSI: 366993010.

Date/timePositionNaut miles runAvg speedWind from/ knotsBaromVisibWave heightAir tempDewpointWater temp
2015-Feb-28 19:51N 47°35' W 122°22'1 2.8
2015-Feb-28 19:31N 47°34' W 122°21'0 0.0
2015-Feb-28 19:31N 47°34' W 122°21'1 1.3
2015-Feb-28 18:34N 47°35' W 122°22'0 6.1
2015-Feb-28 18:31N 47°35' W 122°22'2 1.7
2015-Feb-28 17:21N 47°33' W 122°21'0 0.6
2015-Feb-28 17:20N 47°33' W 122°21'2 0.1
2015-Feb-28 03:52N 47°35' W 122°22'1 2.1
2015-Feb-28 03:33N 47°35' W 122°22'0 0.6
2015-Feb-28 03:33N 47°35' W 122°22'3 2.5
2015-Feb-28 02:26N 47°33' W 122°20'0 0.0
2015-Feb-28 01:32N 47°33' W 122°20'1 4.2
2015-Feb-28 01:12N 47°34' W 122°21'0 0.0
2015-Feb-28 00:28N 47°34' W 122°21'0 0.0
2015-Feb-28 00:00N 47°34' W 122°21'0 0.0
2015-Feb-27 23:33N 47°34' W 122°21'0 0.1
2015-Feb-27 23:30N 47°34' W 122°21'0 0.0
2015-Feb-27 22:33N 47°34' W 122°21'0 0.0
2015-Feb-27 22:20N 47°34' W 122°21'0 0.0
2015-Feb-27 07:30N 47°34' W 122°21'1 6.0
2015-Feb-27 07:22N 47°33' W 122°21'1 1.8
2015-Feb-27 06:51N 47°34' W 122°21'2 5.3
2015-Feb-27 06:33N 47°36' W 122°22'0 0.2
2015-Feb-27 05:30N 47°35' W 122°22'0 0.0
2015-Feb-27 05:21N 47°35' W 122°22'0 0.0
2015-Feb-27 04:33N 47°35' W 122°22'0 0.1
2015-Feb-27 04:15N 47°35' W 122°22'2 3.3
2015-Feb-27 03:33N 47°33' W 122°21'0 6.3
2015-Feb-27 03:31N 47°33' W 122°20'0 0.2
2015-Feb-27 02:33N 47°33' W 122°21'1 0.0
2015-Feb-26 06:12N 47°34' W 122°21'1 1.6
2015-Feb-26 05:33N 47°33' W 122°20'0 5.7
2015-Feb-26 05:33N 47°33' W 122°21'3 2.8
2015-Feb-26 04:33N 47°36' W 122°22'0 5.9
2015-Feb-26 04:33N 47°36' W 122°22'0 0.3
2015-Feb-26 03:32N 47°35' W 122°22'0 0.1
2015-Feb-26 03:21N 47°35' W 122°22'2 3.1
2015-Feb-26 02:33N 47°33' W 122°21'0 0.0
2015-Feb-26 02:19N 47°33' W 122°21'0 0.0
2015-Feb-26 01:32N 47°33' W 122°21'0 0.0
2015-Feb-26 00:43N 47°33' W 122°21'0 0.0
2015-Feb-26 00:33N 47°33' W 122°21'0 0.0
2015-Feb-26 00:32N 47°33' W 122°21'0 0.0
2015-Feb-25 23:32N 47°33' W 122°21'0 0.0
2015-Feb-25 23:28N 47°33' W 122°21'0 0.0
2015-Feb-25 22:33N 47°33' W 122°21'0 0.0
2015-Feb-25 22:13N 47°33' W 122°21'0 0.0
2015-Feb-25 21:32N 47°33' W 122°21'0 0.0
2015-Feb-25 21:17N 47°33' W 122°21'0 0.0
2015-Feb-25 20:33N 47°33' W 122°21'0 0.0
2015-Feb-25 20:26N 47°33' W 122°21'0 0.0
2015-Feb-25 19:33N 47°33' W 122°21'0 0.0
2015-Feb-25 19:32N 47°33' W 122°21'0 0.0
2015-Feb-25 18:33N 47°33' W 122°21'0 0.0
2015-Feb-25 17:33N 47°33' W 122°21'0 0.0
2015-Feb-25 17:21N 47°33' W 122°21'0 0.3
2015-Feb-25 16:33N 47°33' W 122°21'2 6.7
2015-Feb-25 16:16N 47°35' W 122°21'1 1.3
2015-Feb-25 15:33N 47°34' W 122°21'1 4.8
2015-Feb-25 15:25N 47°34' W 122°21'2 2.0
2015-Feb-25 14:33N 47°35' W 122°22'0 0.5
2015-Feb-25 14:29N 47°35' W 122°22'2 1.7
2015-Feb-25 13:33N 47°34' W 122°21'0 0.0
2015-Feb-25 13:24N 47°34' W 122°21'1 0.1
2015-Feb-24 22:29N 47°33' W 122°20'0 0.3
2015-Feb-24 21:31N 47°33' W 122°20'0 0.1
2015-Feb-24 21:27N 47°33' W 122°20'3 2.8
2015-Feb-24 20:33N 47°35' W 122°21'0 0.0
2015-Feb-24 20:33N 47°35' W 122°21'2 1.9
2015-Feb-24 19:33N 47°33' W 122°21'1 4.5
2015-Feb-24 19:17N 47°35' W 122°22'1 1.2
2015-Feb-24 18:33N 47°35' W 122°22'2 2.3
2015-Feb-24 17:33N 47°33' W 122°21'0 1.1
2015-Feb-24 17:27N 47°33' W 122°21'0 0.0
2015-Feb-24 16:33N 47°33' W 122°21'1 5.6
2015-Feb-24 16:22N 47°34' W 122°21'2 2.1
2015-Feb-24 15:32N 47°33' W 122°20'4 3.7
2015-Feb-24 14:30N 47°36' W 122°23'0 1.5
2015-Feb-24 14:20N 47°36' W 122°23'0 0.5
2015-Feb-24 13:33N 47°35' W 122°23'0 0.0
2015-Feb-24 13:30N 47°35' W 122°23'3 2.7
2015-Feb-24 12:33N 47°33' W 122°21'0 0.0
2015-Feb-24 12:29N 47°33' W 122°21'1 1.0
2015-Feb-24 11:33N 47°34' W 122°21'0 0.0
2015-Feb-24 11:29N 47°34' W 122°21'0 0.0
2015-Feb-24 10:32N 47°34' W 122°21'0 0.0
2015-Feb-24 10:28N 47°34' W 122°21'0 0.0
2015-Feb-24 09:30N 47°34' W 122°21'0 0.0
2015-Feb-24 09:29N 47°34' W 122°21'0 0.0
2015-Feb-24 08:31N 47°34' W 122°21'0 0.0
2015-Feb-24 08:04N 47°34' W 122°21'0 0.0
2015-Feb-24 07:34N 47°34' W 122°21'0 0.0
2015-Feb-24 07:33N 47°34' W 122°21'0 0.0
2015-Feb-24 07:08N 47°34' W 122°21'0 0.0
2015-Feb-24 06:27N 47°34' W 122°21'0 0.0
2015-Feb-24 05:31N 47°34' W 122°21'0 0.0
2015-Feb-24 04:27N 47°34' W 122°21'0 0.0
2015-Feb-24 04:23N 47°34' W 122°21'0 0.0
2015-Feb-24 03:28N 47°34' W 122°21'1 1.5
2015-Feb-24 02:53N 47°33' W 122°21'0 0.2
2015-Feb-24 02:25N 47°33' W 122°21'1 1.6
2015-Feb-24 01:43N 47°34' W 122°21'1 6.3
2015-Feb-24 01:32N 47°35' W 122°22'1 0.9
2015-Feb-24 00:32N 47°34' W 122°21'1 0.7
2015-Feb-23 23:33N 47°34' W 122°21'0 0.0
2015-Feb-23 23:24N 47°34' W 122°21'1 0.7
2015-Feb-23 22:33N 47°33' W 122°21'1 0.7
2015-Feb-23 21:39N 47°33' W 122°20'0 0.4
2015-Feb-23 21:14N 47°33' W 122°20'0 4.9
2015-Feb-23 21:10N 47°33' W 122°21'1 1.4
2015-Feb-23 20:34N 47°34' W 122°21'0 0.0
2015-Feb-23 20:29N 47°34' W 122°21'2 2.3
2015-Feb-23 19:32N 47°32' W 122°20'0 0.8
2015-Feb-23 19:15N 47°32' W 122°20'1 1.0
2015-Feb-23 18:33N 47°33' W 122°20'0 0.4
2015-Feb-23 17:34N 47°33' W 122°21'0 0.0
2015-Feb-23 17:13N 47°33' W 122°21'1 1.0
2015-Feb-23 16:18N 47°34' W 122°21'0 0.0
2015-Feb-23 16:18N 47°34' W 122°21'0 0.0
2015-Feb-23 15:33N 47°34' W 122°21'0 0.0
2015-Feb-23 15:27N 47°34' W 122°21'0 0.0
2015-Feb-23 14:34N 47°34' W 122°21'0 0.0
2015-Feb-23 14:33N 47°34' W 122°21'0 0.0
2015-Feb-23 13:32N 47°34' W 122°21'0 0.0
2015-Feb-23 13:07N 47°34' W 122°21'0 0.0
2015-Feb-23 12:33N 47°34' W 122°21'0 0.0
2015-Feb-23 12:33N 47°34' W 122°21'0 0.0
2015-Feb-23 11:33N 47°34' W 122°21'0 0.0
2015-Feb-23 11:33N 47°34' W 122°21'0 0.0
2015-Feb-23 10:33N 47°34' W 122°21'0 0.0
2015-Feb-23 10:33N 47°34' W 122°21'0 0.0
2015-Feb-23 09:33N 47°34' W 122°21'0 0.0
2015-Feb-23 09:33N 47°34' W 122°21'0 0.0
2015-Feb-23 08:34N 47°34' W 122°21'0 0.2
2015-Feb-23 08:32N 47°34' W 122°21'0 0.0
2015-Feb-23 07:33N 47°34' W 122°21'0 0.0
2015-Feb-23 07:32N 47°34' W 122°21'0 0.0
2015-Feb-23 07:02N 47°34' W 122°21'0 0.0
2015-Feb-23 06:33N 47°34' W 122°21'0 0.0
2015-Feb-23 05:34N 47°34' W 122°21'0 0.0
2015-Feb-23 05:32N 47°34' W 122°21'0 0.2
2015-Feb-23 04:33N 47°34' W 122°21'0 0.0
2015-Feb-23 04:31N 47°34' W 122°21'0 0.1
2015-Feb-23 03:33N 47°34' W 122°21'0 8.6
2015-Feb-23 03:31N 47°34' W 122°21'1 0.6
2015-Feb-23 02:33N 47°34' W 122°21'0 2.4
2015-Feb-23 02:31N 47°34' W 122°21'2 1.7
2015-Feb-23 01:33N 47°36' W 122°21'0 0.1
2015-Feb-23 01:31N 47°36' W 122°21'1 0.7
2015-Feb-23 00:34N 47°35' W 122°22'0 0.0
2015-Feb-23 00:31N 47°35' W 122°22'0 0.1
2015-Feb-22 23:33N 47°35' W 122°22'2 1.5
2015-Feb-22 22:33N 47°34' W 122°21'0 0.0
2015-Feb-22 22:33N 47°34' W 122°21'0 0.0
2015-Feb-22 21:33N 47°34' W 122°21'0 0.0
2015-Feb-22 21:32N 47°34' W 122°21'0 0.0
2015-Feb-22 20:33N 47°34' W 122°21'0 0.0
2015-Feb-22 20:32N 47°34' W 122°21'0 0.0
2015-Feb-22 19:33N 47°34' W 122°21'0 0.0
2015-Feb-22 19:27N 47°34' W 122°21'0 0.0
2015-Feb-22 18:33N 47°34' W 122°21'0 0.2
2015-Feb-22 18:32N 47°34' W 122°21'1 1.0
2015-Feb-22 17:34N 47°33' W 122°21'1 4.6
2015-Feb-22 17:16N 47°34' W 122°21'1 1.7
2015-Feb-22 16:34N 47°35' W 122°22'0 2.0
2015-Feb-22 16:31N 47°35' W 122°22'2 2.3
2015-Feb-22 15:33N 47°34' W 122°21'0 6.4
2015-Feb-22 15:31N 47°34' W 122°21'0 0.0
2015-Feb-22 01:14N 47°34' W 122°21'0 0.0
2015-Feb-22 01:14N 47°34' W 122°21'1 1.5
2015-Feb-22 00:33N 47°35' W 122°22'1 7.3
2015-Feb-22 00:28N 47°36' W 122°22'2 2.7
2015-Feb-21 23:34N 47°33' W 122°21'0 0.3
2015-Feb-21 23:32N 47°33' W 122°21'1 0.1
2015-Feb-21 17:28N 47°34' W 122°21'0 2.2
2015-Feb-21 17:26N 47°34' W 122°21'2 1.9
2015-Feb-21 16:33N 47°36' W 122°21'0 0.1
2015-Feb-21 16:31N 47°36' W 122°21'3 2.9
2015-Feb-21 15:33N 47°33' W 122°20'0 0.3
2015-Feb-21 15:26N 47°33' W 122°20'1 0.1
2015-Feb-21 02:07N 47°34' W 122°21'0 4.3
2015-Feb-21 02:04N 47°34' W 122°21'0 0.1
2015-Feb-21 01:33N 47°34' W 122°21'1 7.0
2015-Feb-21 01:29N 47°34' W 122°21'1 1.3
2015-Feb-21 00:33N 47°35' W 122°22'0 0.5
2015-Feb-21 00:29N 47°35' W 122°22'0 0.1
2015-Feb-20 23:33N 47°35' W 122°22'0 0.0
2015-Feb-20 23:29N 47°35' W 122°22'0 0.1
2015-Feb-20 22:34N 47°35' W 122°22'0 0.0
2015-Feb-20 22:33N 47°35' W 122°22'0 0.1
2015-Feb-20 21:34N 47°35' W 122°22'011.4
2015-Feb-20 21:33N 47°35' W 122°22'3 3.3
2015-Feb-20 20:33N 47°32' W 122°20'0 1.3
2015-Feb-20 20:33N 47°32' W 122°20'3 2.8
2015-Feb-20 19:33N 47°35' W 122°22'1 5.2
2015-Feb-20 19:27N 47°35' W 122°21'0 0.3
2015-Feb-20 18:33N 47°36' W 122°22'0 8.6
2015-Feb-20 18:32N 47°36' W 122°22'6 6.3
2015-Feb-20 17:33N 47°37' W 122°31'0 2.0
2015-Feb-20 17:32N 47°37' W 122°31'6 6.4
2015-Feb-20 16:33N 47°35' W 122°22'0 9.1
2015-Feb-20 16:32N 47°35' W 122°22'0 0.4
2015-Feb-20 15:33N 47°36' W 122°22'0 5.0
2015-Feb-20 15:32N 47°36' W 122°22'2 0.1
2015-Feb-20 02:28N 47°34' W 122°21'1 1.6
2015-Feb-20 01:43N 47°35' W 122°21'0 0.5
2015-Feb-20 01:33N 47°35' W 122°21'0 0.0
2015-Feb-20 01:33N 47°35' W 122°21'0 0.0
2015-Feb-20 00:33N 47°35' W 122°21'0 0.0
2015-Feb-20 00:33N 47°35' W 122°21'0 0.1
2015-Feb-19 23:33N 47°35' W 122°21'0 0.0
2015-Feb-19 23:33N 47°35' W 122°21'0 0.3
2015-Feb-19 22:33N 47°35' W 122°21'0 0.5
2015-Feb-19 22:33N 47°35' W 122°21'2 2.1
2015-Feb-19 21:33N 47°33' W 122°20'0 0.3
2015-Feb-19 21:32N 47°33' W 122°20'0 0.1
2015-Feb-19 20:33N 47°33' W 122°20'0 0.3
2015-Feb-19 20:32N 47°33' W 122°20'1 1.3
2015-Feb-19 19:33N 47°34' W 122°21'2 2.8
2015-Feb-19 19:00N 47°36' W 122°22'0 0.7
2015-Feb-19 18:33N 47°36' W 122°22'0 1.6
2015-Feb-19 18:30N 47°36' W 122°22'1 0.8
2015-Feb-19 17:33N 47°35' W 122°22'1 0.1
2015-Feb-19 01:38N 47°34' W 122°21'1 8.7
2015-Feb-19 01:34N 47°33' W 122°21'0 6.9
2015-Feb-19 01:33N 47°33' W 122°20'0 0.1
2015-Feb-19 00:32N 47°33' W 122°20'0 0.0
2015-Feb-19 00:17N 47°33' W 122°20'2 2.6
2015-Feb-18 23:33N 47°35' W 122°22'0 6.7
2015-Feb-18 23:32N 47°35' W 122°22'1 0.7
2015-Feb-18 22:33N 47°35' W 122°22'0 0.1
2015-Feb-18 21:44N 47°35' W 122°22'0 0.2
2015-Feb-18 21:33N 47°35' W 122°22'0 0.2
2015-Feb-18 21:29N 47°36' W 122°22'2 1.8
2015-Feb-18 20:33N 47°34' W 122°21'0 0.0
2015-Feb-18 20:29N 47°34' W 122°21'  
Track history (hours):
 
Tides and Currents Weather Stations Pressure Air Temp Water Temp Dewpoint Dewpoint Depression Visibility Wind Speed Wind Dir Waves Ship Positions

Westrac

Owner: WESTERN TOWBOAT CO, SEATTLE, WA. More information available from US FCC via Universal Licensing System and Coast Guard Vessel Documentation Center.

Last reported at 2015-Feb-28 19:51 UTC. Time now 2015-Mar-01 08:33 UTC.
Position N 47°35' W 122°22'.

Length 23 m; draft 5 m.

Type: Tug. MMSI: 366993010.

Date/timePositionNaut miles runAvg speedWind from/ knotsBaromVisibWave heightAir tempDewpointWater temp
2015-Feb-28 19:51N 47°35' W 122°22'1 2.8
2015-Feb-28 19:31N 47°34' W 122°21'0 0.0
2015-Feb-28 19:31N 47°34' W 122°21'1 1.3
2015-Feb-28 18:34N 47°35' W 122°22'0 6.1
2015-Feb-28 18:31N 47°35' W 122°22'2 1.7
2015-Feb-28 17:21N 47°33' W 122°21'0 0.6
2015-Feb-28 17:20N 47°33' W 122°21'2 0.1
2015-Feb-28 03:52N 47°35' W 122°22'1 2.1
2015-Feb-28 03:33N 47°35' W 122°22'0 0.6
2015-Feb-28 03:33N 47°35' W 122°22'3 2.5
2015-Feb-28 02:26N 47°33' W 122°20'0 0.0
2015-Feb-28 01:32N 47°33' W 122°20'1 4.2
2015-Feb-28 01:12N 47°34' W 122°21'0 0.0
2015-Feb-28 00:28N 47°34' W 122°21'0 0.0
2015-Feb-28 00:00N 47°34' W 122°21'0 0.0
2015-Feb-27 23:33N 47°34' W 122°21'0 0.1
2015-Feb-27 23:30N 47°34' W 122°21'0 0.0
2015-Feb-27 22:33N 47°34' W 122°21'0 0.0
2015-Feb-27 22:20N 47°34' W 122°21'0 0.0
2015-Feb-27 07:30N 47°34' W 122°21'1 6.0
2015-Feb-27 07:22N 47°33' W 122°21'1 1.8
2015-Feb-27 06:51N 47°34' W 122°21'2 5.3
2015-Feb-27 06:33N 47°36' W 122°22'0 0.2
2015-Feb-27 05:30N 47°35' W 122°22'0 0.0
2015-Feb-27 05:21N 47°35' W 122°22'0 0.0
2015-Feb-27 04:33N 47°35' W 122°22'0 0.1
2015-Feb-27 04:15N 47°35' W 122°22'2 3.3
2015-Feb-27 03:33N 47°33' W 122°21'0 6.3
2015-Feb-27 03:31N 47°33' W 122°20'0 0.2
2015-Feb-27 02:33N 47°33' W 122°21'1 0.0
2015-Feb-26 06:12N 47°34' W 122°21'1 1.6
2015-Feb-26 05:33N 47°33' W 122°20'0 5.7
2015-Feb-26 05:33N 47°33' W 122°21'3 2.8
2015-Feb-26 04:33N 47°36' W 122°22'0 5.9
2015-Feb-26 04:33N 47°36' W 122°22'0 0.3
2015-Feb-26 03:32N 47°35' W 122°22'0 0.1
2015-Feb-26 03:21N 47°35' W 122°22'2 3.1
2015-Feb-26 02:33N 47°33' W 122°21'0 0.0
2015-Feb-26 02:19N 47°33' W 122°21'0 0.0
2015-Feb-26 01:32N 47°33' W 122°21'0 0.0
2015-Feb-26 00:43N 47°33' W 122°21'0 0.0
2015-Feb-26 00:33N 47°33' W 122°21'0 0.0
2015-Feb-26 00:32N 47°33' W 122°21'0 0.0
2015-Feb-25 23:32N 47°33' W 122°21'0 0.0
2015-Feb-25 23:28N 47°33' W 122°21'0 0.0
2015-Feb-25 22:33N 47°33' W 122°21'0 0.0
2015-Feb-25 22:13N 47°33' W 122°21'0 0.0
2015-Feb-25 21:32N 47°33' W 122°21'0 0.0
2015-Feb-25 21:17N 47°33' W 122°21'0 0.0
2015-Feb-25 20:33N 47°33' W 122°21'0 0.0
2015-Feb-25 20:26N 47°33' W 122°21'0 0.0
2015-Feb-25 19:33N 47°33' W 122°21'0 0.0
2015-Feb-25 19:32N 47°33' W 122°21'0 0.0
2015-Feb-25 18:33N 47°33' W 122°21'0 0.0
2015-Feb-25 17:33N 47°33' W 122°21'0 0.0
2015-Feb-25 17:21N 47°33' W 122°21'0 0.3
2015-Feb-25 16:33N 47°33' W 122°21'2 6.7
2015-Feb-25 16:16N 47°35' W 122°21'1 1.3
2015-Feb-25 15:33N 47°34' W 122°21'1 4.8
2015-Feb-25 15:25N 47°34' W 122°21'2 2.0
2015-Feb-25 14:33N 47°35' W 122°22'0 0.5
2015-Feb-25 14:29N 47°35' W 122°22'2 1.7
2015-Feb-25 13:33N 47°34' W 122°21'0 0.0
2015-Feb-25 13:24N 47°34' W 122°21'1 0.1
2015-Feb-24 22:29N 47°33' W 122°20'0 0.3
2015-Feb-24 21:31N 47°33' W 122°20'0 0.1
2015-Feb-24 21:27N 47°33' W 122°20'3 2.8
2015-Feb-24 20:33N 47°35' W 122°21'0 0.0
2015-Feb-24 20:33N 47°35' W 122°21'2 1.9
2015-Feb-24 19:33N 47°33' W 122°21'1 4.5
2015-Feb-24 19:17N 47°35' W 122°22'1 1.2
2015-Feb-24 18:33N 47°35' W 122°22'2 2.3
2015-Feb-24 17:33N 47°33' W 122°21'0 1.1
2015-Feb-24 17:27N 47°33' W 122°21'0 0.0
2015-Feb-24 16:33N 47°33' W 122°21'1 5.6
2015-Feb-24 16:22N 47°34' W 122°21'2 2.1
2015-Feb-24 15:32N 47°33' W 122°20'4 3.7
2015-Feb-24 14:30N 47°36' W 122°23'0 1.5
2015-Feb-24 14:20N 47°36' W 122°23'0 0.5
2015-Feb-24 13:33N 47°35' W 122°23'0 0.0
2015-Feb-24 13:30N 47°35' W 122°23'3 2.7
2015-Feb-24 12:33N 47°33' W 122°21'0 0.0
2015-Feb-24 12:29N 47°33' W 122°21'1 1.0
2015-Feb-24 11:33N 47°34' W 122°21'0 0.0
2015-Feb-24 11:29N 47°34' W 122°21'0 0.0
2015-Feb-24 10:32N 47°34' W 122°21'0 0.0
2015-Feb-24 10:28N 47°34' W 122°21'0 0.0
2015-Feb-24 09:30N 47°34' W 122°21'0 0.0
2015-Feb-24 09:29N 47°34' W 122°21'0 0.0
2015-Feb-24 08:31N 47°34' W 122°21'0 0.0
2015-Feb-24 08:04N 47°34' W 122°21'0 0.0
2015-Feb-24 07:34N 47°34' W 122°21'0 0.0
2015-Feb-24 07:33N 47°34' W 122°21'0 0.0
2015-Feb-24 07:08N 47°34' W 122°21'0 0.0
2015-Feb-24 06:27N 47°34' W 122°21'0 0.0
2015-Feb-24 05:31N 47°34' W 122°21'0 0.0
2015-Feb-24 04:27N 47°34' W 122°21'0 0.0
2015-Feb-24 04:23N 47°34' W 122°21'0 0.0
2015-Feb-24 03:28N 47°34' W 122°21'1 1.5
2015-Feb-24 02:53N 47°33' W 122°21'0 0.2
2015-Feb-24 02:25N 47°33' W 122°21'1 1.6
2015-Feb-24 01:43N 47°34' W 122°21'1 6.3
2015-Feb-24 01:32N 47°35' W 122°22'1 0.9
2015-Feb-24 00:32N 47°34' W 122°21'1 0.7
2015-Feb-23 23:33N 47°34' W 122°21'0 0.0
2015-Feb-23 23:24N 47°34' W 122°21'1 0.7
2015-Feb-23 22:33N 47°33' W 122°21'1 0.7
2015-Feb-23 21:39N 47°33' W 122°20'0 0.4
2015-Feb-23 21:14N 47°33' W 122°20'0 4.9
2015-Feb-23 21:10N 47°33' W 122°21'1 1.4
2015-Feb-23 20:34N 47°34' W 122°21'0 0.0
2015-Feb-23 20:29N 47°34' W 122°21'2 2.3
2015-Feb-23 19:32N 47°32' W 122°20'0 0.8
2015-Feb-23 19:15N 47°32' W 122°20'1 1.0
2015-Feb-23 18:33N 47°33' W 122°20'0 0.4
2015-Feb-23 17:34N 47°33' W 122°21'0 0.0
2015-Feb-23 17:13N 47°33' W 122°21'1 1.0
2015-Feb-23 16:18N 47°34' W 122°21'0 0.0
2015-Feb-23 16:18N 47°34' W 122°21'0 0.0
2015-Feb-23 15:33N 47°34' W 122°21'0 0.0
2015-Feb-23 15:27N 47°34' W 122°21'0 0.0
2015-Feb-23 14:34N 47°34' W 122°21'0 0.0
2015-Feb-23 14:33N 47°34' W 122°21'0 0.0
2015-Feb-23 13:32N 47°34' W 122°21'0 0.0
2015-Feb-23 13:07N 47°34' W 122°21'0 0.0
2015-Feb-23 12:33N 47°34' W 122°21'0 0.0
2015-Feb-23 12:33N 47°34' W 122°21'0 0.0
2015-Feb-23 11:33N 47°34' W 122°21'0 0.0
2015-Feb-23 11:33N 47°34' W 122°21'0 0.0
2015-Feb-23 10:33N 47°34' W 122°21'0 0.0
2015-Feb-23 10:33N 47°34' W 122°21'0 0.0
2015-Feb-23 09:33N 47°34' W 122°21'0 0.0
2015-Feb-23 09:33N 47°34' W 122°21'0 0.0
2015-Feb-23 08:34N 47°34' W 122°21'0 0.2
2015-Feb-23 08:32N 47°34' W 122°21'0 0.0
2015-Feb-23 07:33N 47°34' W 122°21'0 0.0
2015-Feb-23 07:32N 47°34' W 122°21'0 0.0
2015-Feb-23 07:02N 47°34' W 122°21'0 0.0
2015-Feb-23 06:33N 47°34' W 122°21'0 0.0
2015-Feb-23 05:34N 47°34' W 122°21'0 0.0
2015-Feb-23 05:32N 47°34' W 122°21'0 0.2
2015-Feb-23 04:33N 47°34' W 122°21'0 0.0
2015-Feb-23 04:31N 47°34' W 122°21'0 0.1
2015-Feb-23 03:33N 47°34' W 122°21'0 8.6
2015-Feb-23 03:31N 47°34' W 122°21'1 0.6
2015-Feb-23 02:33N 47°34' W 122°21'0 2.4
2015-Feb-23 02:31N 47°34' W 122°21'2 1.7
2015-Feb-23 01:33N 47°36' W 122°21'0 0.1
2015-Feb-23 01:31N 47°36' W 122°21'1 0.7
2015-Feb-23 00:34N 47°35' W 122°22'0 0.0
2015-Feb-23 00:31N 47°35' W 122°22'0 0.1
2015-Feb-22 23:33N 47°35' W 122°22'2 1.5
2015-Feb-22 22:33N 47°34' W 122°21'0 0.0
2015-Feb-22 22:33N 47°34' W 122°21'0 0.0
2015-Feb-22 21:33N 47°34' W 122°21'0 0.0
2015-Feb-22 21:32N 47°34' W 122°21'0 0.0
2015-Feb-22 20:33N 47°34' W 122°21'0 0.0
2015-Feb-22 20:32N 47°34' W 122°21'0 0.0
2015-Feb-22 19:33N 47°34' W 122°21'0 0.0
2015-Feb-22 19:27N 47°34' W 122°21'0 0.0
2015-Feb-22 18:33N 47°34' W 122°21'0 0.2
2015-Feb-22 18:32N 47°34' W 122°21'1 1.0
2015-Feb-22 17:34N 47°33' W 122°21'1 4.6
2015-Feb-22 17:16N 47°34' W 122°21'1 1.7
2015-Feb-22 16:34N 47°35' W 122°22'0 2.0
2015-Feb-22 16:31N 47°35' W 122°22'2 2.3
2015-Feb-22 15:33N 47°34' W 122°21'0 6.4
2015-Feb-22 15:31N 47°34' W 122°21'0 0.0
2015-Feb-22 01:14N 47°34' W 122°21'0 0.0
2015-Feb-22 01:14N 47°34' W 122°21'1 1.5
2015-Feb-22 00:33N 47°35' W 122°22'1 7.3
2015-Feb-22 00:28N 47°36' W 122°22'2 2.7
2015-Feb-21 23:34N 47°33' W 122°21'0 0.3
2015-Feb-21 23:32N 47°33' W 122°21'1 0.1
2015-Feb-21 17:28N 47°34' W 122°21'0 2.2
2015-Feb-21 17:26N 47°34' W 122°21'2 1.9
2015-Feb-21 16:33N 47°36' W 122°21'0 0.1
2015-Feb-21 16:31N 47°36' W 122°21'3 2.9
2015-Feb-21 15:33N 47°33' W 122°20'0 0.3
2015-Feb-21 15:26N 47°33' W 122°20'1 0.1
2015-Feb-21 02:07N 47°34' W 122°21'0 4.3
2015-Feb-21 02:04N 47°34' W 122°21'0 0.1
2015-Feb-21 01:33N 47°34' W 122°21'1 7.0
2015-Feb-21 01:29N 47°34' W 122°21'1 1.3
2015-Feb-21 00:33N 47°35' W 122°22'0 0.5
2015-Feb-21 00:29N 47°35' W 122°22'0 0.1
2015-Feb-20 23:33N 47°35' W 122°22'0 0.0
2015-Feb-20 23:29N 47°35' W 122°22'0 0.1
2015-Feb-20 22:34N 47°35' W 122°22'0 0.0
2015-Feb-20 22:33N 47°35' W 122°22'0 0.1
2015-Feb-20 21:34N 47°35' W 122°22'011.4
2015-Feb-20 21:33N 47°35' W 122°22'3 3.3
2015-Feb-20 20:33N 47°32' W 122°20'0 1.3
2015-Feb-20 20:33N 47°32' W 122°20'3 2.8
2015-Feb-20 19:33N 47°35' W 122°22'1 5.2
2015-Feb-20 19:27N 47°35' W 122°21'0 0.3
2015-Feb-20 18:33N 47°36' W 122°22'0 8.6
2015-Feb-20 18:32N 47°36' W 122°22'6 6.3
2015-Feb-20 17:33N 47°37' W 122°31'0 2.0
2015-Feb-20 17:32N 47°37' W 122°31'6 6.4
2015-Feb-20 16:33N 47°35' W 122°22'0 9.1
2015-Feb-20 16:32N 47°35' W 122°22'0 0.4
2015-Feb-20 15:33N 47°36' W 122°22'0 5.0
2015-Feb-20 15:32N 47°36' W 122°22'2 0.1
2015-Feb-20 02:28N 47°34' W 122°21'1 1.6
2015-Feb-20 01:43N 47°35' W 122°21'0 0.5
2015-Feb-20 01:33N 47°35' W 122°21'0 0.0
2015-Feb-20 01:33N 47°35' W 122°21'0 0.0
2015-Feb-20 00:33N 47°35' W 122°21'0 0.0
2015-Feb-20 00:33N 47°35' W 122°21'0 0.1
2015-Feb-19 23:33N 47°35' W 122°21'0 0.0
2015-Feb-19 23:33N 47°35' W 122°21'0 0.3
2015-Feb-19 22:33N 47°35' W 122°21'0 0.5
2015-Feb-19 22:33N 47°35' W 122°21'2 2.1
2015-Feb-19 21:33N 47°33' W 122°20'0 0.3
2015-Feb-19 21:32N 47°33' W 122°20'0 0.1
2015-Feb-19 20:33N 47°33' W 122°20'0 0.3
2015-Feb-19 20:32N 47°33' W 122°20'1 1.3
2015-Feb-19 19:33N 47°34' W 122°21'2 2.8
2015-Feb-19 19:00N 47°36' W 122°22'0 0.7
2015-Feb-19 18:33N 47°36' W 122°22'0 1.6
2015-Feb-19 18:30N 47°36' W 122°22'1 0.8
2015-Feb-19 17:33N 47°35' W 122°22'1 0.1
2015-Feb-19 01:38N 47°34' W 122°21'1 8.7
2015-Feb-19 01:34N 47°33' W 122°21'0 6.9
2015-Feb-19 01:33N 47°33' W 122°20'0 0.1
2015-Feb-19 00:32N 47°33' W 122°20'0 0.0
2015-Feb-19 00:17N 47°33' W 122°20'2 2.6
2015-Feb-18 23:33N 47°35' W 122°22'0 6.7
2015-Feb-18 23:32N 47°35' W 122°22'1 0.7
2015-Feb-18 22:33N 47°35' W 122°22'0 0.1
2015-Feb-18 21:44N 47°35' W 122°22'0 0.2
2015-Feb-18 21:33N 47°35' W 122°22'0 0.2
2015-Feb-18 21:29N 47°36' W 122°22'2 1.8
2015-Feb-18 20:33N 47°34' W 122°21'0 0.0
2015-Feb-18 20:29N 47°34' W 122°21'  

Dump ship's entire track history